Time;durP1;ratioP1;P1;durP2;ratioP2;P2;SDS_P1;SDS_P2;PMS_P1;PMS_P2;Temp;Humidity;BMP_temperature;BMP_pressure;BME280_temperature;BME280_humidity;BME280_pressure;Samples;Min_cycle;Max_cycle;Signal;HPM_P1;HPM_P2
2022/01/19 00:01:06;;;;;;;12.27;5.80;;;;;;;7.72;100.00;102703.56;4836347;29;20520;-90
2022/01/19 00:04:21;;;;;;;9.00;4.80;;;;;;;7.69;100.00;102687.50;4747781;30;20500;-90
2022/01/19 00:07:12;;;;;;;7.13;4.40;;;;;;;7.67;100.00;102678.59;4737676;30;20453;-91
2022/01/19 00:10:15;;;;;;;12.23;5.83;;;;;;;7.64;100.00;102679.72;4738506;30;20918;-90
2022/01/19 00:13:33;;;;;;;7.40;4.67;;;;;;;7.61;100.00;102669.09;4752654;30;20461;-91
2022/01/19 00:23:53;;;;;;;17.30;7.10;;;;;;;7.53;100.00;102687.88;4699313;30;20480;-91
2022/01/19 00:26:42;;;;;;;17.17;8.60;;;;;;;7.49;100.00;102703.63;4699025;30;20484;-91
2022/01/19 00:29:22;;;;;;;12.63;6.70;;;;;;;7.47;100.00;102721.91;4700149;30;20559;-91
2022/01/19 00:32:11;;;;;;;12.30;5.83;;;;;;;7.44;100.00;102716.72;4685485;30;20467;-91
2022/01/19 00:34:56;;;;;;;13.80;6.93;;;;;;;7.38;100.00;102716.34;4705831;30;20539;-91
2022/01/19 00:37:41;;;;;;;16.13;6.10;;;;;;;7.37;100.00;102730.94;4838880;29;20462;-90
2022/01/19 00:43:49;;;;;;;25.83;13.73;;;;;;;7.32;100.00;102723.16;4867993;29;20477;-91
2022/01/19 00:46:40;;;;;;;20.80;12.43;;;;;;;7.34;100.00;102729.31;4845285;29;20511;-92
2022/01/19 00:49:19;;;;;;;23.80;10.20;;;;;;;7.27;100.00;102717.22;4847932;29;21012;-90
2022/01/19 00:51:58;;;;;;;12.30;7.00;;;;;;;7.32;100.00;102717.69;4846909;29;20494;-91
2022/01/19 00:54:47;;;;;;;13.50;7.67;;;;;;;7.35;100.00;102716.59;4838849;29;20460;-91
2022/01/19 00:57:45;;;;;;;14.73;6.93;;;;;;;7.34;100.00;102710.28;4879451;29;20961;-90
2022/01/19 01:00:27;;;;;;;15.57;8.20;;;;;;;7.35;100.00;102706.56;4915979;29;20498;-91
2022/01/19 01:03:04;;;;;;;18.43;9.63;;;;;;;7.34;100.00;102703.97;4920157;29;20543;-90
2022/01/19 01:05:43;;;;;;;18.20;8.60;;;;;;;7.25;100.00;102694.72;4920765;29;20467;-90
2022/01/19 01:08:48;;;;;;;21.87;9.17;;;;;;;7.34;100.00;102701.25;4915840;29;20468;-91
2022/01/19 01:16:02;;;;;;;30.63;16.63;;;;;;;7.38;100.00;102694.59;4923290;29;20888;-90
2022/01/19 01:18:42;;;;;;;33.70;18.80;;;;;;;7.33;100.00;102681.34;4916542;29;20474;-91
2022/01/19 01:21:16;;;;;;;22.80;13.97;;;;;;;7.28;100.00;102667.28;4894698;29;20869;-90
2022/01/19 01:23:53;;;;;;;24.97;14.73;;;;;;;7.20;100.00;102678.78;4887381;29;20533;-90
2022/01/19 01:26:55;;;;;;;18.90;12.33;;;;;;;7.17;100.00;102681.75;4901386;29;20460;-90
2022/01/19 01:29:47;;;;;;;22.73;12.37;;;;;;;7.16;100.00;102679.16;4917543;29;20452;-90
2022/01/19 01:32:42;;;;;;;23.77;13.40;;;;;;;7.16;100.00;102673.72;4919206;29;20448;-90
2022/01/19 01:35:39;;;;;;;23.13;11.60;;;;;;;7.17;100.00;102661.84;4934990;29;20448;-90
2022/01/19 01:38:32;;;;;;;24.20;13.00;;;;;;;7.19;100.00;102663.44;4925457;29;20791;-91
2022/01/19 01:41:14;;;;;;;33.47;17.40;;;;;;;7.21;100.00;102663.34;4919163;29;20472;-91
2022/01/19 01:44:03;;;;;;;36.73;14.90;;;;;;;7.16;100.00;102657.41;4906148;29;20877;-92
2022/01/19 01:47:05;;;;;;;34.03;14.07;;;;;;;7.13;100.00;102660.34;4936118;29;20844;-91
2022/01/19 01:55:45;;;;;;;11.63;6.90;;;;;;;7.12;100.00;102653.22;4921382;29;20456;-91
2022/01/19 01:58:36;;;;;;;14.30;7.20;;;;;;;7.13;100.00;102652.19;4890454;29;20453;-91
2022/01/19 02:01:04;;;;;;;12.27;6.40;;;;;;;7.13;100.00;102649.47;4918746;29;20499;-90
2022/01/19 02:03:38;;;;;;;15.57;6.60;;;;;;;7.05;100.00;102635.66;4910730;29;20447;-90
2022/01/19 02:09:14;;;;;;;9.80;5.70;;;;;;;7.05;100.00;102649.25;4943120;29;20801;-89
2022/01/19 02:23:52;;;;;;;9.20;4.80;;;;;;;6.92;100.00;102642.09;4931850;29;20490;-91
2022/01/19 02:26:45;;;;;;;8.47;5.30;;;;;;;6.89;100.00;102636.91;4927308;29;20451;-87
2022/01/19 04:08:16;;;;;;;;;;;;;;;;;;;;;
2022/01/19 08:50:15;;;;;;;32.20;8.00;;;;;;;6.32;100.00;102748.28;4966262;23;20495;-93
2022/01/19 08:52:44;;;;;;;19.33;6.60;;;;;;;6.42;100.00;102754.72;4919300;29;20517;-94
2022/01/19 08:55:15;;;;;;;33.17;7.40;;;;;;;6.46;100.00;102749.94;4894583;29;20492;-93
2022/01/19 09:30:21;;;;;;;21.33;10.80;;;;;;;7.95;100.00;102797.78;4961446;29;21038;-93
2022/01/19 10:00:37;;;;;;;13.60;7.50;;;;;;;10.12;100.00;102809.78;4981504;29;20494;-91
2022/01/19 10:03:34;;;;;;;12.90;7.13;;;;;;;10.32;100.00;102812.47;4993833;23;20485;-93
2022/01/19 10:06:09;;;;;;;11.53;7.90;;;;;;;10.57;100.00;102810.19;5040962;23;20515;-94
2022/01/19 10:08:49;;;;;;;16.97;7.43;;;;;;;10.68;100.00;102804.56;4922684;29;20479;-90
2022/01/19 10:17:12;;;;;;;14.70;7.93;;;;;;;11.27;100.00;102822.66;4906335;29;20516;-85
2022/01/19 10:20:04;;;;;;;14.90;8.27;;;;;;;11.41;100.00;102819.44;4924340;29;20440;-87
2022/01/19 10:22:38;;;;;;;16.80;8.43;;;;;;;11.55;100.00;102816.22;4907855;29;20457;-87
2022/01/19 10:29:13;;;;;;;20.13;8.97;;;;;;;11.91;100.00;102820.03;4935962;29;20457;-86
2022/01/19 10:40:00;;;;;;;15.20;6.67;;;;;;;12.28;100.00;102795.28;4934172;29;20431;-87
2022/01/19 10:42:41;;;;;;;10.07;6.20;;;;;;;12.44;100.00;102809.16;4890777;29;20460;-86
2022/01/19 10:45:10;;;;;;;9.50;5.60;;;;;;;12.55;100.00;102804.44;4871767;29;20444;-86
2022/01/19 10:47:45;;;;;;;16.37;6.37;;;;;;;12.75;100.00;102811.50;4871474;29;20540;-86
2022/01/19 10:50:25;;;;;;;12.40;6.90;;;;;;;12.88;100.00;102801.00;4890139;29;20463;-86
2022/01/19 10:52:53;;;;;;;10.80;6.77;;;;;;;12.97;100.00;102796.44;4931093;29;20444;-86
2022/01/19 10:56:07;;;;;;;8.53;5.07;;;;;;;13.14;100.00;102801.88;4913513;29;20488;-86
2022/01/19 10:59:02;;;;;;;16.23;4.50;;;;;;;13.27;100.00;102796.03;4919312;29;20455;-86
2022/01/19 11:04:42;;;;;;;7.43;4.40;;;;;;;13.55;100.00;102796.69;4940039;29;20507;-86
2022/01/19 11:07:37;;;;;;;10.00;4.40;;;;;;;13.72;100.00;102787.50;4930936;29;20483;-85
2022/01/19 11:10:18;;;;;;;12.70;4.17;;;;;;;13.78;100.00;102784.09;4929030;29;20437;-86
2022/01/19 11:12:50;;;;;;;9.60;4.33;;;;;;;13.89;100.00;102791.19;4920485;29;20436;-86
2022/01/19 11:15:27;;;;;;;14.77;5.13;;;;;;;13.85;100.00;102765.09;4912843;29;20551;-86
2022/01/19 11:17:55;;;;;;;7.77;3.80;;;;;;;14.08;100.00;102779.06;4938215;29;20450;-86
2022/01/19 11:20:26;;;;;;;16.10;4.23;;;;;;;14.12;100.00;102766.69;4914577;29;20475;-86
2022/01/19 11:23:19;;;;;;;6.73;3.90;;;;;;;14.27;100.00;102767.75;4914858;29;20507;-88
2022/01/19 11:26:04;;;;;;;10.90;5.10;;;;;;;14.33;100.00;102778.09;4939898;29;20542;-85
2022/01/19 11:28:46;;;;;;;4.90;3.57;;;;;;;14.39;99.59;102755.44;4913873;29;20451;-85
2022/01/19 11:31:16;;;;;;;6.10;3.63;;;;;;;14.49;99.68;102758.03;4935677;29;20447;-86
2022/01/19 11:33:47;;;;;;;9.57;3.57;;;;;;;14.61;98.56;102758.56;4902146;29;20532;-86
2022/01/19 11:36:22;;;;;;;12.20;3.53;;;;;;;14.72;98.43;102749.97;4878776;29;20575;-86
2022/01/19 11:39:14;;;;;;;6.77;3.70;;;;;;;14.81;98.44;102751.72;4901537;29;20443;-86
2022/01/19 11:41:47;;;;;;;11.60;3.30;;;;;;;14.91;97.98;102740.50;4896130;29;20444;-86
2022/01/19 11:44:37;;;;;;;9.30;3.90;;;;;;;14.96;97.93;102738.94;4910476;29;20468;-85
2022/01/19 11:47:11;;;;;;;8.97;3.80;;;;;;;15.05;96.97;102743.41;4900818;29;20447;-86
2022/01/19 11:50:04;;;;;;;4.40;3.27;;;;;;;15.09;96.58;102731.00;4917653;29;20448;-86
2022/01/19 11:52:42;;;;;;;5.50;3.30;;;;;;;15.16;95.83;102737.53;4911538;29;20444;-86
2022/01/19 11:55:29;;;;;;;6.10;3.23;;;;;;;15.23;95.91;102723.03;4901941;29;20571;-86
2022/01/19 11:58:14;;;;;;;19.60;4.60;;;;;;;15.33;95.35;102712.72;4902970;29;20452;-86
2022/01/19 12:00:54;;;;;;;13.00;3.63;;;;;;;15.46;95.38;102718.50;4921864;29;20457;-86
2022/01/19 12:03:30;;;;;;;10.90;3.70;;;;;;;15.52;95.05;102718.66;4927823;29;20439;-86
2022/01/19 12:06:30;;;;;;;9.73;3.80;;;;;;;15.60;94.40;102712.28;4968591;29;20499;-86
2022/01/19 12:09:08;;;;;;;13.93;4.00;;;;;;;15.67;93.81;102710.53;4912899;29;20494;-85
2022/01/19 12:30:54;;;;;;;17.67;6.23;;;;;;;16.20;90.51;102692.28;4969031;29;20475;-86
2022/01/19 12:33:22;;;;;;;10.93;6.20;;;;;;;16.33;90.37;102692.56;4931110;29;20455;-87
2022/01/19 12:35:50;;;;;;;8.60;4.50;;;;;;;16.43;90.00;102687.63;4893266;29;20498;-86
2022/01/19 12:38:19;;;;;;;8.80;4.80;;;;;;;16.51;89.58;102698.63;4907030;29;20948;-86
2022/01/19 12:40:49;;;;;;;15.53;5.00;;;;;;;16.51;88.31;102687.59;4905677;29;20466;-86
2022/01/19 12:43:33;;;;;;;14.23;6.30;;;;;;;16.54;86.86;102684.47;4890937;29;20444;-86
2022/01/19 12:46:53;;;;;;;6.90;3.80;;;;;;;16.57;86.50;102684.06;4901303;29;20847;-86
2022/01/19 12:49:28;;;;;;;9.70;3.83;;;;;;;16.63;86.01;102676.09;4917168;29;20487;-85
2022/01/19 12:51:58;;;;;;;7.07;4.10;;;;;;;16.70;86.34;102682.63;4896841;29;20526;-86
2022/01/19 12:54:30;;;;;;;6.93;4.17;;;;;;;16.70;87.07;102666.06;4888820;29;20453;-87
2022/01/19 12:57:40;;;;;;;7.80;3.37;;;;;;;16.84;86.78;102673.50;4877214;29;20442;-86
2022/01/19 13:00:22;;;;;;;6.07;2.90;;;;;;;16.86;86.27;102672.28;4868966;29;20525;-85
2022/01/19 13:02:50;;;;;;;7.53;3.77;;;;;;;16.83;85.98;102647.78;4844665;29;20448;-85
2022/01/19 13:05:20;;;;;;;9.60;3.13;;;;;;;16.91;85.96;102650.47;4854541;29;20627;-86
2022/01/19 13:08:24;;;;;;;5.80;3.10;;;;;;;17.06;85.91;102653.25;4872068;29;20451;-85
2022/01/19 13:11:26;;;;;;;27.17;2.87;;;;;;;17.10;86.11;102654.56;4885395;29;20458;-84
2022/01/19 13:14:09;;;;;;;6.50;3.00;;;;;;;17.22;86.16;102654.94;4853126;29;20531;-85
2022/01/19 13:35:28;;;;;;;3.47;2.67;;;;;;;17.42;84.73;102599.94;4919537;29;20985;-87
2022/01/19 13:46:02;;;;;;;15.07;6.47;;;;;;;17.62;85.34;102592.72;4924849;29;20437;-87
2022/01/19 13:48:31;;;;;;;9.60;4.80;;;;;;;17.63;85.92;102591.69;4899258;29;20485;-87
2022/01/19 13:51:04;;;;;;;11.77;4.33;;;;;;;17.66;85.77;102585.81;4905516;29;20455;-87
2022/01/19 13:53:33;;;;;;;8.33;4.13;;;;;;;17.66;86.46;102580.28;4871271;29;20487;-88
2022/01/19 13:56:14;;;;;;;9.20;5.30;;;;;;;17.75;86.46;102584.59;4890374;29;20480;-87
2022/01/19 14:38:48;;;;;;;12.10;4.43;;;;;;;17.95;84.65;102529.47;4915034;29;20476;-86
2022/01/19 14:41:25;;;;;;;7.10;4.93;;;;;;;18.04;84.50;102528.31;4872551;29;20824;-87
2022/01/19 14:44:20;;;;;;;8.40;4.13;;;;;;;18.17;84.65;102541.38;4888710;29;20426;-86
2022/01/19 15:06:37;;;;;;;15.77;4.00;;;;;;;18.70;82.17;102539.88;4907370;29;20466;-86
2022/01/19 15:09:05;;;;;;;9.67;3.77;;;;;;;18.35;81.76;102532.56;4878536;29;20453;-86
2022/01/19 15:12:13;;;;;;;9.30;4.10;;;;;;;18.06;82.20;102539.16;4852003;29;20461;-86
2022/01/19 15:14:53;;;;;;;10.83;3.90;;;;;;;17.55;84.21;102533.72;4916406;29;20436;-86
2022/01/19 15:17:26;;;;;;;7.20;4.10;;;;;;;17.29;84.80;102527.91;4860485;29;20541;-87
2022/01/19 15:20:13;;;;;;;15.93;4.93;;;;;;;17.14;85.78;102536.22;4899297;29;20446;-87
2022/01/19 22:07:49;;;;;;;21.00;10.03;;;;;;;7.91;100.00;102594.84;4903007;23;20528;-87
2022/01/19 22:10:24;;;;;;;18.23;9.20;;;;;;;7.96;100.00;102617.13;4871453;29;20450;-86
2022/01/19 22:12:55;;;;;;;15.93;8.03;;;;;;;7.95;100.00;102616.25;4870019;29;20453;-87
2022/01/19 22:15:48;;;;;;;11.13;5.87;;;;;;;7.76;100.00;102593.44;4885995;29;20480;-87
2022/01/19 22:18:33;;;;;;;16.00;7.03;;;;;;;7.73;100.00;102601.88;4871898;29;20532;-87
2022/01/19 22:25:53;;;;;;;7.97;4.63;;;;;;;7.48;100.00;102603.09;4901222;29;20501;-87
2022/01/19 23:11:19;;;;;;;8.07;4.43;;;;;;;6.92;100.00;102611.34;4893420;29;20473;-87
2022/01/19 23:14:18;;;;;;;13.63;6.70;;;;;;;6.97;100.00;102608.22;4886096;29;20555;-87
2022/01/19 23:16:47;;;;;;;10.27;6.40;;;;;;;6.96;100.00;102601.06;4888426;29;20511;-86
2022/01/19 23:19:16;;;;;;;10.50;5.93;;;;;;;6.97;100.00;102597.34;4858585;29;20446;-87
2022/01/19 23:21:43;;;;;;;10.37;7.20;;;;;;;6.98;100.00;102594.50;4856552;29;20499;-87
2022/01/19 23:24:11;;;;;;;9.73;5.60;;;;;;;7.00;100.00;102602.53;4866975;29;20451;-87
2022/01/19 23:26:55;;;;;;;20.63;6.17;;;;;;;6.96;100.00;102593.78;4876861;29;20466;-86
2022/01/19 23:29:24;;;;;;;25.70;7.60;;;;;;;6.91;100.00;102593.31;4848709;29;20547;-86
2022/01/19 23:31:55;;;;;;;21.03;7.23;;;;;;;6.85;100.00;102583.78;4846523;29;20451;-87
2022/01/19 23:34:29;;;;;;;14.17;7.30;;;;;;;6.83;100.00;102583.03;4872025;29;20445;-87
2022/01/19 23:37:20;;;;;;;13.90;8.00;;;;;;;6.77;100.00;102586.25;4853946;29;20868;-87
2022/01/19 23:48:03;;;;;;;11.00;7.20;;;;;;;6.61;100.00;102585.75;4836050;29;20478;-87
2022/01/19 23:50:31;;;;;;;14.90;8.60;;;;;;;6.60;100.00;102594.88;4846529;29;20796;-86
2022/01/19 23:52:59;;;;;;;13.47;8.77;;;;;;;6.54;100.00;102595.41;4846133;29;20455;-87
2022/01/19 23:55:29;;;;;;;20.40;9.50;;;;;;;6.53;100.00;102601.81;4858082;29;20456;-86
2022/01/19 23:58:16;;;;;;;12.17;8.17;;;;;;;6.50;100.00;102599.34;4860750;29;20464;-86
